Time;durP1;ratioP1;P1;durP2;ratioP2;P2;SDS_P1;SDS_P2;PMS_P1;PMS_P2;Temp;Humidity;BMP_temperature;BMP_pressure;BME280_temperature;BME280_humidity;BME280_pressure;Samples;Min_cycle;Max_cycle;Signal;HPM_P1;HPM_P2
2020/12/31 00:05:48;;;;;;;314.65;107.83;;;;;;;-1.42;100.00;99469.73;9939492;88;21116;-91
2020/12/31 00:20:53;;;;;;;279.02;96.53;;;;;;;-1.48;100.00;99477.28;9916851;87;21132;-86
2020/12/31 00:35:58;;;;;;;210.15;81.72;;;;;;;-1.98;100.00;99488.38;9923553;87;21173;-90
2020/12/31 00:51:02;;;;;;;136.60;53.03;;;;;;;-1.85;100.00;99488.14;9917226;88;21235;-90
2020/12/31 01:06:07;;;;;;;131.67;52.88;;;;;;;-1.67;100.00;99505.23;9917073;88;21500;-91
2020/12/31 01:21:12;;;;;;;159.67;67.97;;;;;;;-1.61;100.00;99523.41;9917570;88;21195;-85
2020/12/31 01:36:16;;;;;;;164.47;68.50;;;;;;;-1.53;100.00;99523.00;9920718;88;21235;-90
2020/12/31 01:51:20;;;;;;;138.97;58.83;;;;;;;-1.52;100.00;99525.52;9919068;88;21464;-89
2020/12/31 02:06:26;;;;;;;129.42;53.48;;;;;;;-1.49;100.00;99545.12;10098215;86;21202;-91
2020/12/31 02:21:32;;;;;;;189.70;72.07;;;;;;;-1.88;100.00;99542.30;10095694;86;21113;-90
2020/12/31 02:36:40;;;;;;;572.20;207.50;;;;;;;-1.78;100.00;99537.09;9939925;88;21199;-92
2020/12/31 02:51:46;;;;;;;193.85;82.17;;;;;;;-1.74;100.00;99536.47;10109264;86;21121;-90
2020/12/31 03:06:50;;;;;;;;;;;;;;;-1.91;100.00;99550.99;9945871;88;21167;-89
2020/12/31 03:21:54;;;;;;;152.65;59.90;;;;;;;-1.56;100.00;99550.17;9953816;88;20238;-90
2020/12/31 03:36:59;;;;;;;143.62;60.35;;;;;;;-1.52;100.00;99544.81;9929695;88;21540;-89
2020/12/31 03:52:04;;;;;;;167.00;65.52;;;;;;;-1.17;100.00;99535.75;9918422;88;21188;-90
2020/12/31 04:07:08;;;;;;;128.47;54.85;;;;;;;-1.20;100.00;99542.34;9919562;88;21539;-90
2020/12/31 04:22:13;;;;;;;147.47;55.88;;;;;;;-1.27;100.00;99559.00;9905826;88;21560;-90
2020/12/31 04:37:17;;;;;;;156.10;60.08;;;;;;;-0.61;100.00;99556.03;10006267;87;21123;-90
2020/12/31 04:52:22;;;;;;;194.60;91.50;;;;;;;-0.99;100.00;99551.17;9889598;88;21510;-90
2020/12/31 05:07:27;;;;;;;124.67;51.92;;;;;;;-0.68;100.00;99573.56;10064971;86;21099;-90
2020/12/31 05:22:32;;;;;;;130.75;52.95;;;;;;;-0.91;100.00;99601.82;10063220;87;21536;-92
2020/12/31 05:37:36;;;;;;;162.22;63.08;;;;;;;-0.72;100.00;99607.31;9877648;88;21248;-91
2020/12/31 05:52:40;;;;;;;147.32;59.75;;;;;;;-1.08;100.00;99626.28;9900369;88;21514;-90
2020/12/31 06:07:48;;;;;;;159.45;69.80;;;;;;;-0.98;100.00;99648.09;9974461;87;21588;-88
2020/12/31 06:23:05;;;;;;;147.28;55.80;;;;;;;-0.90;100.00;99673.03;9951487;87;21107;-91
2020/12/31 06:38:10;;;;;;;120.77;52.70;;;;;;;-1.32;100.00;99683.25;9933806;85;21100;-87
2020/12/31 06:53:33;;;;;;;546.45;188.60;;;;;;;-0.91;100.00;99702.27;9952758;88;21216;-90
2020/12/31 07:08:44;;;;;;;169.85;80.65;;;;;;;-1.09;100.00;99713.00;9980180;88;21137;-88
2020/12/31 07:23:48;;;;;;;179.07;82.57;;;;;;;-1.08;100.00;99719.83;9938348;87;21048;-89
2020/12/31 07:38:55;;;;;;;267.43;133.18;;;;;;;-0.58;100.00;99736.25;10013700;86;21222;-86
2020/12/31 07:54:00;;;;;;;333.35;117.22;;;;;;;-0.96;100.00;99748.00;9933462;88;21930;-90
2020/12/31 08:09:04;;;;;;;142.22;63.85;;;;;;;-1.11;100.00;99741.02;9911033;88;21575;-90
2020/12/31 08:24:12;;;;;;;145.23;66.77;;;;;;;-0.95;100.00;99734.66;9954660;86;21096;-91
2020/12/31 08:39:20;;;;;;;221.33;84.70;;;;;;;-0.61;100.00;99744.59;9974678;87;21112;-92
2020/12/31 08:54:25;;;;;;;149.65;70.37;;;;;;;-0.10;100.00;99755.72;9751821;89;21171;-90
2020/12/31 09:09:30;;;;;;;233.35;109.75;;;;;;;0.22;100.00;99758.80;10061814;86;21088;-91
2020/12/31 09:24:39;;;;;;;196.45;85.00;;;;;;;1.07;100.00;99763.17;9927150;88;21591;-93
2020/12/31 09:39:42;;;;;;;205.80;93.55;;;;;;;1.81;100.00;99765.37;10160403;86;21076;-91
2020/12/31 09:54:47;;;;;;;129.78;65.70;;;;;;;2.47;100.00;99765.20;10152027;86;21095;-91
2020/12/31 10:09:52;;;;;;;123.25;59.67;;;;;;;2.76;100.00;99765.13;9910561;88;21211;-90
2020/12/31 10:24:56;;;;;;;287.50;118.00;;;;;;;2.58;100.00;99745.11;10074773;87;21895;-90
2020/12/31 10:40:00;;;;;;;190.38;79.67;;;;;;;1.56;100.00;99741.41;9934525;87;22059;-90
2020/12/31 10:55:05;;;;;;;145.53;62.95;;;;;;;0.87;100.00;99733.31;9914312;88;21095;-88
2020/12/31 11:10:09;;;;;;;164.25;67.78;;;;;;;0.16;100.00;99737.58;9935948;88;21060;-87
2020/12/31 11:25:14;;;;;;;143.30;61.08;;;;;;;0.18;100.00;99733.62;9900043;87;21083;-87
2020/12/31 11:40:18;;;;;;;131.03;54.95;;;;;;;-0.04;100.00;99739.08;9961489;88;21222;-86
2020/12/31 11:55:24;;;;;;;130.63;48.45;;;;;;;0.03;100.00;99735.72;9907755;88;21127;-86
2020/12/31 12:10:28;;;;;;;119.97;52.33;;;;;;;0.10;100.00;99753.84;9895888;88;21698;-86
2020/12/31 12:25:33;;;;;;;135.95;54.75;;;;;;;-0.07;100.00;99746.98;9873185;90;21120;-86
2020/12/31 12:40:37;;;;;;;109.70;44.95;;;;;;;0.02;100.00;99763.27;9868197;88;21130;-88
2020/12/31 12:55:41;;;;;;;117.33;48.42;;;;;;;-0.10;100.00;99770.37;9898675;89;21235;-91
2020/12/31 14:47:48;;;;;;;196.15;81.75;;;;;;;-0.04;100.00;99811.29;10061281;85;21214;-88
2020/12/31 15:18:47;;;;;;;148.68;53.20;;;;;;;-0.08;100.00;99818.37;10504440;83;21510;-90
2020/12/31 15:33:51;;;;;;;123.30;44.65;;;;;;;-0.36;100.00;99835.67;10283841;84;21047;-90
2020/12/31 15:48:56;;;;;;;134.40;49.40;;;;;;;-0.55;100.00;99829.33;10421539;83;21441;-89
2020/12/31 16:19:54;;;;;;;200.72;55.08;;;;;;;-0.54;100.00;99831.82;10154858;85;21107;-90
2020/12/31 16:35:00;;;;;;;283.30;87.00;;;;;;;-0.54;100.00;99831.82;10121595;85;21084;-91
2020/12/31 16:50:08;;;;;;;82.12;33.63;;;;;;;-0.61;100.00;99823.99;9961401;87;21031;-91
2020/12/31 17:05:13;;;;;;;167.40;51.77;;;;;;;-0.74;100.00;99823.78;10123594;84;21099;-90
2020/12/31 17:36:00;;;;;;;164.32;54.40;;;;;;;-0.68;100.00;99814.45;10133117;84;21092;-89
2020/12/31 18:23:17;;;;;;;71.15;30.35;;;;;;;-0.78;100.00;99835.58;10214938;86;21229;-92
2020/12/31 18:38:23;;;;;;;139.15;40.00;;;;;;;-1.18;100.00;99838.30;10194362;85;21194;-92
2020/12/31 19:09:33;;;;;;;122.58;57.67;;;;;;;-1.18;100.00;99844.27;10213582;86;21065;-92
2020/12/31 19:24:38;;;;;;;70.05;26.80;;;;;;;-1.41;100.00;99853.50;10193496;86;21565;-92
2020/12/31 19:55:37;;;;;;;116.93;41.30;;;;;;;-1.39;100.00;99873.58;10388566;84;21159;-90
2020/12/31 20:10:42;;;;;;;98.12;34.03;;;;;;;-1.22;100.00;99872.35;10355137;84;21172;-92
2020/12/31 20:25:46;;;;;;;243.30;66.02;;;;;;;-1.14;100.00;99877.63;10362924;84;21093;-90
2020/12/31 20:40:50;;;;;;;291.35;95.90;;;;;;;-1.21;100.00;99887.37;10405462;84;21085;-88
2020/12/31 22:00:01;;;;;;;72.08;26.77;;;;;;;-1.33;100.00;99878.46;10216750;85;21076;-92
2020/12/31 23:18:19;;;;;;;87.00;31.62;;;;;;;-1.56;100.00;99849.45;10208436;86;21131;-91
2020/12/31 23:33:24;;;;;;;115.73;41.20;;;;;;;-1.42;100.00;99840.27;10204638;86;21143;-86
